createdAt,value
2019-01-24T00:00:15.890Z,95.11
2019-01-24T00:00:47.092Z,95.00
2019-01-24T00:01:18.288Z,94.92
2019-01-24T00:01:49.489Z,94.96
2019-01-24T00:02:20.696Z,95.03
2019-01-24T00:02:51.883Z,95.01
2019-01-24T00:03:23.070Z,95.01
2019-01-24T00:03:54.283Z,95.11
2019-01-24T00:04:25.469Z,95.39
2019-01-24T00:04:56.643Z,95.65
2019-01-24T00:05:27.828Z,95.69
2019-01-24T00:05:59.041Z,95.57
2019-01-24T00:06:30.213Z,95.38
2019-01-24T00:07:01.379Z,95.20
2019-01-24T00:07:32.572Z,94.98
2019-01-24T00:08:03.773Z,94.94
2019-01-24T00:08:35.004Z,95.10
2019-01-24T00:09:06.245Z,95.05
2019-01-24T00:09:37.419Z,94.58
2019-01-24T00:10:08.622Z,94.25
2019-01-24T00:10:39.832Z,93.83
2019-01-24T00:11:11.020Z,93.67
2019-01-24T00:11:42.203Z,93.41
2019-01-24T00:12:13.397Z,93.23
2019-01-24T00:12:44.578Z,92.96
2019-01-24T00:13:15.821Z,92.88
2019-01-24T00:13:46.996Z,92.81
2019-01-24T00:14:18.209Z,92.75
2019-01-24T00:14:49.394Z,92.73
2019-01-24T00:15:20.564Z,92.74
2019-01-24T00:15:51.743Z,92.80
2019-01-24T00:16:22.967Z,92.90
2019-01-24T00:16:54.121Z,92.96
2019-01-24T00:17:25.306Z,92.99
2019-01-24T00:17:56.490Z,93.00
2019-01-24T00:18:27.792Z,93.04
2019-01-24T00:18:58.999Z,93.22
2019-01-24T00:19:30.182Z,93.42
2019-01-24T00:20:01.375Z,93.57
2019-01-24T00:20:32.592Z,93.63
2019-01-24T00:21:03.811Z,93.58
2019-01-24T00:21:35.022Z,93.63
2019-01-24T00:22:06.214Z,93.74
2019-01-24T00:22:37.438Z,93.71
2019-01-24T00:23:08.628Z,93.71
2019-01-24T00:23:39.873Z,93.66
2019-01-24T00:24:11.058Z,93.68
2019-01-24T00:24:42.284Z,93.90
2019-01-24T00:25:13.452Z,94.38
2019-01-24T00:25:45.383Z,94.65
2019-01-24T00:26:16.584Z,94.74
2019-01-24T00:26:47.813Z,94.83
2019-01-24T00:27:18.992Z,94.80
2019-01-24T00:27:50.220Z,94.76
2019-01-24T00:28:21.389Z,94.82
2019-01-24T00:28:52.566Z,94.79
2019-01-24T00:29:23.742Z,94.67
2019-01-24T00:29:54.917Z,94.46
2019-01-24T00:30:26.105Z,94.14
2019-01-24T00:30:57.290Z,94.02
2019-01-24T00:31:28.470Z,93.78
2019-01-24T00:31:59.689Z,93.65
2019-01-24T00:32:30.927Z,93.54
2019-01-24T00:33:02.154Z,93.33
2019-01-24T00:33:33.405Z,93.17
2019-01-24T00:34:04.593Z,93.06
2019-01-24T00:34:35.811Z,92.98
2019-01-24T00:35:07.003Z,93.32
2019-01-24T00:35:38.198Z,93.33
2019-01-24T00:36:09.375Z,93.25
2019-01-24T00:36:40.542Z,93.22
2019-01-24T00:37:11.735Z,93.13
2019-01-24T00:37:42.906Z,92.88
2019-01-24T00:38:14.093Z,92.69
2019-01-24T00:38:45.311Z,92.60
2019-01-24T00:39:17.323Z,92.55
2019-01-24T00:39:48.499Z,92.52
2019-01-24T00:40:19.671Z,92.56
2019-01-24T00:40:50.850Z,92.66
2019-01-24T00:41:22.053Z,92.65
2019-01-24T00:41:53.223Z,92.61
2019-01-24T00:42:24.430Z,92.57
2019-01-24T00:42:55.632Z,92.52
2019-01-24T00:43:26.802Z,92.46
2019-01-24T00:43:58.018Z,92.47
2019-01-24T00:44:29.230Z,92.37
2019-01-24T00:45:00.435Z,92.32
2019-01-24T00:45:31.629Z,92.35
2019-01-24T00:46:02.846Z,92.38
2019-01-24T00:46:34.043Z,92.41
2019-01-24T00:47:05.217Z,92.47
2019-01-24T00:47:36.422Z,92.53
2019-01-24T00:48:07.609Z,92.64
2019-01-24T00:48:38.847Z,92.74
2019-01-24T00:49:10.105Z,92.84
2019-01-24T00:49:41.283Z,92.85
2019-01-24T00:50:12.483Z,92.85
2019-01-24T00:50:43.668Z,93.03
2019-01-24T00:51:14.854Z,93.11
2019-01-24T00:51:46.033Z,93.08
2019-01-24T00:52:17.201Z,92.96
2019-01-24T00:52:48.391Z,92.88
2019-01-24T00:53:19.565Z,92.82
2019-01-24T00:53:50.735Z,92.87
2019-01-24T00:54:21.967Z,92.79
2019-01-24T00:54:53.139Z,92.80
2019-01-24T00:55:24.421Z,92.85
2019-01-24T00:55:55.600Z,92.96
2019-01-24T00:56:26.784Z,93.05
2019-01-24T00:56:58.009Z,93.20
2019-01-24T00:57:29.194Z,93.39
2019-01-24T00:58:00.385Z,93.53
2019-01-24T00:58:31.606Z,93.84
2019-01-24T00:59:02.779Z,93.95
2019-01-24T00:59:33.952Z,93.93
2019-01-24T01:00:05.127Z,93.93
2019-01-24T01:00:36.359Z,93.83
2019-01-24T01:01:07.550Z,93.72
2019-01-24T01:01:38.751Z,93.44
2019-01-24T01:02:09.958Z,93.28
2019-01-24T01:02:41.127Z,93.25
2019-01-24T01:03:12.323Z,93.21
2019-01-24T01:03:43.498Z,93.16
2019-01-24T01:04:14.711Z,93.15
2019-01-24T01:04:45.891Z,93.02
2019-01-24T01:05:17.053Z,92.90
2019-01-24T01:05:48.294Z,92.67
2019-01-24T01:06:19.473Z,92.47
2019-01-24T01:06:50.643Z,92.46
2019-01-24T01:07:21.804Z,92.64
2019-01-24T01:07:52.978Z,92.98
2019-01-24T01:08:24.148Z,93.28
2019-01-24T01:08:55.328Z,93.55
2019-01-24T01:09:26.547Z,93.85
2019-01-24T01:09:57.690Z,94.04
2019-01-24T01:10:28.859Z,94.21
2019-01-24T01:11:00.118Z,94.37
2019-01-24T01:11:31.299Z,94.42
2019-01-24T01:12:02.531Z,94.53
2019-01-24T01:12:33.720Z,94.62
2019-01-24T01:13:04.898Z,94.64
2019-01-24T01:13:36.089Z,94.59
2019-01-24T01:14:07.269Z,94.58
2019-01-24T01:14:38.510Z,94.62
2019-01-24T01:15:09.735Z,94.64
2019-01-24T01:15:40.929Z,94.71
2019-01-24T01:16:12.090Z,94.77
2019-01-24T01:16:43.268Z,94.77
2019-01-24T01:17:14.422Z,94.75
2019-01-24T01:17:45.600Z,94.68
2019-01-24T01:18:16.780Z,94.58
2019-01-24T01:18:47.953Z,94.44
2019-01-24T01:19:19.117Z,94.36
2019-01-24T01:19:50.289Z,94.15
2019-01-24T01:20:21.573Z,93.94
2019-01-24T01:20:52.763Z,93.85
2019-01-24T01:21:23.952Z,93.77
2019-01-24T01:21:55.118Z,93.79
2019-01-24T01:22:26.296Z,93.82
2019-01-24T01:22:57.489Z,93.79
2019-01-24T01:23:28.674Z,93.76
2019-01-24T01:23:59.885Z,93.75
2019-01-24T01:24:31.063Z,93.70
2019-01-24T01:25:02.236Z,93.72
2019-01-24T01:25:33.461Z,93.73
2019-01-24T01:26:04.660Z,93.63
2019-01-24T01:26:35.884Z,93.50
2019-01-24T01:27:07.051Z,93.46
2019-01-24T01:27:38.236Z,93.42
2019-01-24T01:28:09.422Z,93.35
2019-01-24T01:28:40.629Z,93.37
2019-01-24T01:29:11.816Z,93.42
2019-01-24T01:29:43.030Z,93.47
2019-01-24T01:30:14.196Z,93.51
2019-01-24T01:30:45.437Z,93.63
2019-01-24T01:31:16.622Z,93.70
2019-01-24T01:31:47.820Z,93.65
2019-01-24T01:32:19.039Z,93.58
2019-01-24T01:32:50.253Z,93.29
2019-01-24T01:33:21.443Z,92.77
2019-01-24T01:33:52.596Z,92.49
2019-01-24T01:34:23.804Z,92.42
2019-01-24T01:34:54.977Z,92.31
2019-01-24T01:35:26.157Z,92.08
2019-01-24T01:35:57.383Z,91.95
2019-01-24T01:36:28.549Z,91.88
2019-01-24T01:36:59.745Z,91.87
2019-01-24T01:37:33.158Z,91.87
2019-01-24T01:38:04.329Z,91.87
2019-01-24T01:38:35.502Z,91.81
2019-01-24T01:39:06.708Z,91.75
2019-01-24T01:39:37.881Z,91.75
2019-01-24T01:40:09.165Z,91.83
2019-01-24T01:40:40.334Z,91.89
2019-01-24T01:41:11.529Z,91.91
2019-01-24T01:41:42.760Z,91.99
2019-01-24T01:42:13.956Z,91.95
2019-01-24T01:42:45.158Z,91.88
2019-01-24T01:43:16.331Z,91.87
2019-01-24T01:43:47.583Z,91.87
2019-01-24T01:44:18.799Z,91.97
2019-01-24T01:44:49.988Z,92.22
2019-01-24T01:45:21.180Z,92.38
2019-01-24T01:45:52.439Z,92.46
2019-01-24T01:46:23.603Z,92.53
2019-01-24T01:46:54.827Z,92.50
2019-01-24T01:47:26.013Z,92.51
2019-01-24T01:47:57.208Z,92.45
2019-01-24T01:48:28.930Z,92.48
2019-01-24T01:49:00.110Z,92.50
2019-01-24T01:49:31.272Z,92.47
2019-01-24T01:50:02.461Z,92.42
2019-01-24T01:50:33.631Z,92.37
2019-01-24T01:51:04.885Z,92.20
2019-01-24T01:51:36.092Z,92.03
2019-01-24T01:52:07.285Z,91.92
2019-01-24T01:52:38.461Z,91.93
2019-01-24T01:53:09.689Z,91.79
2019-01-24T01:53:40.864Z,91.70
2019-01-24T01:54:12.097Z,91.68
2019-01-24T01:54:43.261Z,91.72
2019-01-24T01:55:14.451Z,91.72
2019-01-24T01:55:46.741Z,91.77
2019-01-24T01:56:17.924Z,91.84
2019-01-24T01:56:49.110Z,91.93
2019-01-24T01:57:20.314Z,91.93
2019-01-24T01:57:51.535Z,91.98
2019-01-24T01:58:22.744Z,92.00
2019-01-24T01:58:53.929Z,92.00
2019-01-24T01:59:25.148Z,92.04
2019-01-24T01:59:57.397Z,92.06
2019-01-24T02:00:28.584Z,92.12
2019-01-24T02:00:59.779Z,92.20
2019-01-24T02:01:30.985Z,92.18
2019-01-24T02:02:02.232Z,92.24
2019-01-24T02:02:33.407Z,92.29
2019-01-24T02:03:04.647Z,92.15
2019-01-24T02:03:35.819Z,92.08
2019-01-24T02:04:07.015Z,92.13
2019-01-24T02:04:42.893Z,92.23
2019-01-24T02:05:11.147Z,92.29
2019-01-24T02:05:42.326Z,92.27
2019-01-24T02:06:13.496Z,92.27
2019-01-24T02:06:44.715Z,92.28
2019-01-24T02:07:15.919Z,92.25
2019-01-24T02:07:47.087Z,92.25
2019-01-24T02:08:18.338Z,92.22
2019-01-24T02:08:49.524Z,92.17
2019-01-24T02:09:20.672Z,92.10
2019-01-24T02:09:51.905Z,92.10
2019-01-24T02:10:23.091Z,92.09
2019-01-24T02:10:54.286Z,91.79
2019-01-24T02:11:25.476Z,91.56
2019-01-24T02:11:56.676Z,91.44
2019-01-24T02:12:27.863Z,91.36
2019-01-24T02:12:59.096Z,91.40
2019-01-24T02:13:30.294Z,91.38
2019-01-24T02:14:01.543Z,91.43
2019-01-24T02:14:32.707Z,91.55
2019-01-24T02:15:03.876Z,91.74
2019-01-24T02:15:35.054Z,91.88
2019-01-24T02:16:06.245Z,92.03
2019-01-24T02:16:37.411Z,92.08
2019-01-24T02:17:08.584Z,92.13
2019-01-24T02:17:39.753Z,92.20
2019-01-24T02:18:10.960Z,92.24
2019-01-24T02:18:42.148Z,92.20
2019-01-24T02:19:13.411Z,92.22
2019-01-24T02:19:44.620Z,92.26
2019-01-24T02:20:15.805Z,92.42
2019-01-24T02:20:47.043Z,92.45
2019-01-24T02:21:18.210Z,92.44
2019-01-24T02:21:49.379Z,92.39
2019-01-24T02:22:20.549Z,92.37
2019-01-24T02:22:51.741Z,92.30
2019-01-24T02:23:22.926Z,92.25
2019-01-24T02:23:54.113Z,92.27
2019-01-24T02:24:25.316Z,92.28
2019-01-24T02:24:56.533Z,92.27
2019-01-24T02:25:27.724Z,92.20
2019-01-24T02:25:58.939Z,92.17
2019-01-24T02:26:30.196Z,92.28
2019-01-24T02:27:01.410Z,92.38
2019-01-24T02:27:32.638Z,92.42
2019-01-24T02:28:03.810Z,92.47
2019-01-24T02:28:34.984Z,92.46
2019-01-24T02:29:08.470Z,92.42
2019-01-24T02:29:39.640Z,92.39
2019-01-24T02:30:10.804Z,92.42
2019-01-24T02:30:42.052Z,92.46
2019-01-24T02:31:14.371Z,92.46
2019-01-24T02:31:45.553Z,92.35
2019-01-24T02:32:16.735Z,92.30
2019-01-24T02:32:47.913Z,92.36
2019-01-24T02:33:19.099Z,92.36
2019-01-24T02:33:50.274Z,92.46
2019-01-24T02:34:21.440Z,92.54
2019-01-24T02:34:52.628Z,92.67
2019-01-24T02:35:23.809Z,92.84
2019-01-24T02:35:54.997Z,92.93
2019-01-24T02:36:26.183Z,93.00
2019-01-24T02:36:57.374Z,93.04
2019-01-24T02:37:28.534Z,93.11
2019-01-24T02:37:59.774Z,93.21
2019-01-24T02:38:30.970Z,93.28
2019-01-24T02:39:02.138Z,93.27
2019-01-24T02:39:33.393Z,93.28
2019-01-24T02:40:04.558Z,93.05
2019-01-24T02:40:35.743Z,92.76
2019-01-24T02:41:06.903Z,92.68
2019-01-24T02:41:38.104Z,92.65
2019-01-24T02:42:09.352Z,92.62
2019-01-24T02:42:40.581Z,92.62
2019-01-24T02:43:11.755Z,92.73
2019-01-24T02:43:42.937Z,92.84
2019-01-24T02:44:14.109Z,92.96
2019-01-24T02:44:45.292Z,93.04
2019-01-24T02:45:16.477Z,93.10
2019-01-24T02:45:47.639Z,93.19
2019-01-24T02:46:18.871Z,93.31
2019-01-24T02:46:50.065Z,93.40
2019-01-24T02:47:21.247Z,93.40
2019-01-24T02:47:52.463Z,93.39
2019-01-24T02:48:23.671Z,93.42
2019-01-24T02:48:54.851Z,93.38
2019-01-24T02:49:26.085Z,93.34
2019-01-24T02:49:57.284Z,93.09
2019-01-24T02:50:28.265Z,93.13
2019-01-24T02:50:59.431Z,93.08
2019-01-24T02:51:30.612Z,93.06
2019-01-24T02:52:01.791Z,93.03
2019-01-24T02:52:33.030Z,92.99
2019-01-24T02:53:04.258Z,92.99
2019-01-24T02:53:35.445Z,92.98
2019-01-24T02:54:06.636Z,93.04
2019-01-24T02:54:38.174Z,93.10
2019-01-24T02:55:09.402Z,93.10
2019-01-24T02:55:40.582Z,93.07
2019-01-24T02:56:11.763Z,93.09
2019-01-24T02:56:42.969Z,93.13
2019-01-24T02:57:14.158Z,93.18
2019-01-24T02:57:45.328Z,93.22
2019-01-24T02:58:16.576Z,93.12
2019-01-24T02:58:47.744Z,93.06
2019-01-24T02:59:18.934Z,92.94
2019-01-24T02:59:50.132Z,92.89
2019-01-24T03:00:21.333Z,92.87
2019-01-24T03:00:52.498Z,92.84
2019-01-24T03:01:23.666Z,92.78
2019-01-24T03:01:54.836Z,92.74
2019-01-24T03:02:26.032Z,92.73
2019-01-24T03:02:57.213Z,92.75
2019-01-24T03:03:28.445Z,92.80
2019-01-24T03:03:59.608Z,92.80
2019-01-24T03:04:30.854Z,92.82
2019-01-24T03:05:02.019Z,92.87
2019-01-24T03:05:33.195Z,92.88
2019-01-24T03:06:04.403Z,92.89
2019-01-24T03:06:35.582Z,92.91
2019-01-24T03:07:06.777Z,92.90
2019-01-24T03:07:37.978Z,92.92
2019-01-24T03:08:09.171Z,92.98
2019-01-24T03:08:40.463Z,93.00
2019-01-24T03:09:11.699Z,93.06
2019-01-24T03:09:42.895Z,93.29
2019-01-24T03:10:14.065Z,93.56
2019-01-24T03:10:45.282Z,93.86
2019-01-24T03:11:16.445Z,94.08
2019-01-24T03:11:47.615Z,94.27
2019-01-24T03:12:18.786Z,94.58
2019-01-24T03:12:49.986Z,94.79
2019-01-24T03:13:21.179Z,95.03
2019-01-24T03:13:52.377Z,95.46
2019-01-24T03:14:23.557Z,95.75
2019-01-24T03:14:54.722Z,95.95
2019-01-24T03:15:25.878Z,96.11
2019-01-24T03:15:57.067Z,96.39
2019-01-24T03:16:28.276Z,96.58
2019-01-24T03:16:59.459Z,96.64
2019-01-24T03:17:30.665Z,96.65
2019-01-24T03:18:01.883Z,96.68
2019-01-24T03:18:33.091Z,96.70
2019-01-24T03:19:04.284Z,96.69
2019-01-24T03:19:35.471Z,96.65
2019-01-24T03:20:06.662Z,96.59
2019-01-24T03:20:37.868Z,96.55
2019-01-24T03:21:09.059Z,96.62
2019-01-24T03:21:40.239Z,96.64
2019-01-24T03:22:11.423Z,96.67
2019-01-24T03:22:42.589Z,96.63
2019-01-24T03:23:13.777Z,96.54
2019-01-24T03:23:45.014Z,96.47
2019-01-24T03:24:16.202Z,96.62
2019-01-24T03:24:47.380Z,96.91
2019-01-24T03:25:18.601Z,97.06
2019-01-24T03:25:49.803Z,97.15
2019-01-24T03:26:21.057Z,97.15
2019-01-24T03:26:52.328Z,97.24
2019-01-24T03:27:23.470Z,97.47
2019-01-24T03:27:54.750Z,97.65
2019-01-24T03:28:25.927Z,97.77
2019-01-24T03:28:57.148Z,97.79
2019-01-24T03:29:28.335Z,97.86
2019-01-24T03:29:59.507Z,97.94
2019-01-24T03:30:30.682Z,97.98
2019-01-24T03:31:01.900Z,98.05
2019-01-24T03:31:33.105Z,98.09
2019-01-24T03:32:04.276Z,98.08
2019-01-24T03:32:35.465Z,98.16
2019-01-24T03:33:06.693Z,98.20
2019-01-24T03:33:37.881Z,98.27
2019-01-24T03:34:09.126Z,98.27
2019-01-24T03:34:40.303Z,98.27
2019-01-24T03:35:11.516Z,98.24
2019-01-24T03:35:42.705Z,98.27
2019-01-24T03:36:13.900Z,98.22
2019-01-24T03:36:45.076Z,98.14
2019-01-24T03:37:16.251Z,98.08
2019-01-24T03:37:47.481Z,98.06
2019-01-24T03:38:18.659Z,98.06
2019-01-24T03:38:49.842Z,98.10
2019-01-24T03:39:21.039Z,98.19
2019-01-24T03:39:52.205Z,98.31
2019-01-24T03:40:23.375Z,98.34
2019-01-24T03:40:54.575Z,98.42
2019-01-24T03:41:25.751Z,98.47
2019-01-24T03:41:56.944Z,98.58
2019-01-24T03:42:28.132Z,98.59
2019-01-24T03:42:59.301Z,98.62
2019-01-24T03:43:30.475Z,98.62
2019-01-24T03:44:01.648Z,98.64
2019-01-24T03:44:32.842Z,98.62
2019-01-24T03:45:04.021Z,98.63
2019-01-24T03:45:35.207Z,98.63
2019-01-24T03:46:06.423Z,98.61
2019-01-24T03:46:37.599Z,98.61
2019-01-24T03:47:08.773Z,98.66
2019-01-24T03:47:39.958Z,98.73
2019-01-24T03:48:11.215Z,98.70
2019-01-24T03:48:42.399Z,98.70
2019-01-24T03:49:14.436Z,98.62
2019-01-24T03:49:45.619Z,98.57
2019-01-24T03:50:16.810Z,98.52
2019-01-24T03:50:47.994Z,98.47
2019-01-24T03:51:19.164Z,98.42
2019-01-24T03:51:50.359Z,98.35
2019-01-24T03:52:21.554Z,98.28
2019-01-24T03:52:52.746Z,98.25
2019-01-24T03:53:23.907Z,98.10
2019-01-24T03:53:55.138Z,97.99
2019-01-24T03:54:26.319Z,97.88
2019-01-24T03:54:57.485Z,97.74
2019-01-24T03:55:28.657Z,97.54
2019-01-24T03:55:59.822Z,97.40
2019-01-24T03:56:30.998Z,97.25
2019-01-24T03:57:02.168Z,97.10
2019-01-24T03:57:33.410Z,97.00
2019-01-24T03:58:04.574Z,96.96
2019-01-24T03:58:35.749Z,97.01
2019-01-24T03:59:06.957Z,97.05
2019-01-24T03:59:38.180Z,97.03
2019-01-24T04:00:09.366Z,96.99
2019-01-24T04:00:40.528Z,96.99
2019-01-24T04:01:11.740Z,96.96
2019-01-24T04:01:42.854Z,96.93
2019-01-24T04:02:14.068Z,96.88
2019-01-24T04:02:45.302Z,96.84
2019-01-24T04:03:16.521Z,96.86
2019-01-24T04:03:47.701Z,96.92
2019-01-24T04:04:18.883Z,96.94
2019-01-24T04:04:50.102Z,97.02
2019-01-24T04:05:21.290Z,97.05
2019-01-24T04:05:52.442Z,97.15
2019-01-24T04:06:23.621Z,97.15
2019-01-24T04:06:54.793Z,97.22
2019-01-24T04:07:25.964Z,97.28
2019-01-24T04:07:57.246Z,97.29
2019-01-24T04:08:28.437Z,97.37
2019-01-24T04:08:59.600Z,97.42
2019-01-24T04:09:30.757Z,97.45
2019-01-24T04:10:01.926Z,97.41
2019-01-24T04:10:33.102Z,97.42
2019-01-24T04:11:04.280Z,97.40
2019-01-24T04:11:35.460Z,97.38
2019-01-24T04:12:08.365Z,97.45
2019-01-24T04:12:40.375Z,97.45
2019-01-24T04:13:11.554Z,97.47
2019-01-24T04:13:42.720Z,97.45
2019-01-24T04:14:13.900Z,97.48
2019-01-24T04:14:45.084Z,97.40
2019-01-24T04:15:16.304Z,97.36
2019-01-24T04:15:47.540Z,97.37
2019-01-24T04:16:18.744Z,97.44
2019-01-24T04:16:49.988Z,97.45
2019-01-24T04:17:21.144Z,97.53
2019-01-24T04:17:52.364Z,97.53
2019-01-24T04:18:23.525Z,97.52
2019-01-24T04:18:54.709Z,97.46
2019-01-24T04:19:25.888Z,97.30
2019-01-24T04:19:57.079Z,97.17
2019-01-24T04:20:28.278Z,97.11
2019-01-24T04:20:59.501Z,97.08
2019-01-24T04:21:30.740Z,97.07
2019-01-24T04:22:01.911Z,97.01
2019-01-24T04:22:33.082Z,96.97
2019-01-24T04:23:04.297Z,96.96
2019-01-24T04:23:35.531Z,96.87
2019-01-24T04:24:06.674Z,96.91
2019-01-24T04:24:37.851Z,96.97
2019-01-24T04:25:08.941Z,97.00
2019-01-24T04:25:40.104Z,97.05
2019-01-24T04:26:11.261Z,97.09
2019-01-24T04:26:42.439Z,97.07
2019-01-24T04:27:13.655Z,97.05
2019-01-24T04:27:44.859Z,97.03
2019-01-24T04:28:16.032Z,97.10
2019-01-24T04:28:47.217Z,97.14
2019-01-24T04:29:18.401Z,97.20
2019-01-24T04:29:49.577Z,97.20
2019-01-24T04:30:20.742Z,97.29
2019-01-24T04:30:51.929Z,97.45
2019-01-24T04:31:23.083Z,97.54
2019-01-24T04:31:54.255Z,97.56
2019-01-24T04:32:25.462Z,97.59
2019-01-24T04:32:56.629Z,97.65
2019-01-24T04:33:27.792Z,97.63
2019-01-24T04:33:58.993Z,97.61
2019-01-24T04:34:30.163Z,97.54
2019-01-24T04:35:01.335Z,97.50
2019-01-24T04:35:32.508Z,97.47
2019-01-24T04:36:03.684Z,97.43
2019-01-24T04:36:34.878Z,97.37
2019-01-24T04:37:06.032Z,97.39
2019-01-24T04:37:37.225Z,97.35
2019-01-24T04:38:08.418Z,97.34
2019-01-24T04:38:39.584Z,97.31
2019-01-24T04:39:10.798Z,97.33
2019-01-24T04:39:41.988Z,97.23
2019-01-24T04:40:13.162Z,97.17
2019-01-24T04:40:44.342Z,97.04
2019-01-24T04:41:15.565Z,97.01
2019-01-24T04:41:46.746Z,96.87
2019-01-24T04:42:17.914Z,96.82
2019-01-24T04:42:49.118Z,96.75
2019-01-24T04:43:20.367Z,96.69
2019-01-24T04:43:51.534Z,96.62
2019-01-24T04:44:22.694Z,96.46
2019-01-24T04:44:53.868Z,96.36
2019-01-24T04:45:25.054Z,96.15
2019-01-24T04:45:56.216Z,95.86
2019-01-24T04:46:27.420Z,95.66
2019-01-24T04:46:58.620Z,95.47
2019-01-24T04:47:29.812Z,95.36
2019-01-24T04:48:00.975Z,95.25
2019-01-24T04:48:32.202Z,95.18
2019-01-24T04:49:03.416Z,95.12
2019-01-24T04:49:34.625Z,95.11
2019-01-24T04:50:05.800Z,95.09
2019-01-24T04:50:36.970Z,95.09
2019-01-24T04:51:08.141Z,95.11
2019-01-24T04:51:39.346Z,95.02
2019-01-24T04:52:10.547Z,95.07
2019-01-24T04:52:41.749Z,94.93
2019-01-24T04:53:12.982Z,94.89
2019-01-24T04:53:44.201Z,94.83
2019-01-24T04:54:15.408Z,94.78
2019-01-24T04:54:46.611Z,94.74
2019-01-24T04:55:17.782Z,94.67
2019-01-24T04:55:48.963Z,94.58
2019-01-24T04:56:20.174Z,94.53
2019-01-24T04:56:51.392Z,94.53
2019-01-24T04:57:22.581Z,94.53
2019-01-24T04:57:54.988Z,94.48
2019-01-24T04:58:26.477Z,94.31
2019-01-24T04:58:57.645Z,94.21
2019-01-24T04:59:28.875Z,94.07
2019-01-24T05:00:00.050Z,93.93
2019-01-24T05:00:31.320Z,93.88
2019-01-24T05:01:02.518Z,93.80
2019-01-24T05:01:33.702Z,93.70
2019-01-24T05:02:04.902Z,93.61
2019-01-24T05:02:36.064Z,93.55
2019-01-24T05:03:07.227Z,93.48
2019-01-24T05:03:38.403Z,93.37
2019-01-24T05:04:09.578Z,93.29
2019-01-24T05:04:40.776Z,93.31
2019-01-24T05:05:11.952Z,93.36
2019-01-24T05:05:43.171Z,93.45
2019-01-24T05:06:14.374Z,93.36
2019-01-24T05:06:45.565Z,93.35
2019-01-24T05:07:16.754Z,93.33
2019-01-24T05:07:47.936Z,93.21
2019-01-24T05:08:19.143Z,93.08
2019-01-24T05:08:50.350Z,92.96
2019-01-24T05:09:21.526Z,92.88
2019-01-24T05:09:52.700Z,92.65
2019-01-24T05:10:23.895Z,92.52
2019-01-24T05:10:55.123Z,92.40
2019-01-24T05:11:26.293Z,92.30
2019-01-24T05:11:57.468Z,92.26
2019-01-24T05:12:28.629Z,92.33
2019-01-24T05:12:59.792Z,92.40
2019-01-24T05:13:30.958Z,92.49
2019-01-24T05:14:02.135Z,92.59
2019-01-24T05:14:33.298Z,92.72
2019-01-24T05:15:04.460Z,92.86
2019-01-24T05:15:35.648Z,92.99
2019-01-24T05:16:06.888Z,93.01
2019-01-24T05:16:38.049Z,93.03
2019-01-24T05:17:09.252Z,93.12
2019-01-24T05:17:40.476Z,93.20
2019-01-24T05:18:11.677Z,93.36
2019-01-24T05:18:42.865Z,93.46
2019-01-24T05:19:14.033Z,93.59
2019-01-24T05:19:45.212Z,93.70
2019-01-24T05:20:16.417Z,93.75
2019-01-24T05:20:47.566Z,93.78
2019-01-24T05:21:18.816Z,93.82
2019-01-24T05:21:50.007Z,93.85
2019-01-24T05:22:21.221Z,93.92
2019-01-24T05:22:52.423Z,94.00
2019-01-24T05:23:23.655Z,94.10
2019-01-24T05:23:54.836Z,94.16
2019-01-24T05:24:25.998Z,94.12
2019-01-24T05:24:57.178Z,94.23
2019-01-24T05:25:28.390Z,94.36
2019-01-24T05:25:59.608Z,94.47
2019-01-24T05:26:30.785Z,94.52
2019-01-24T05:27:01.965Z,94.59
2019-01-24T05:27:33.177Z,94.64
2019-01-24T05:28:04.362Z,94.68
2019-01-24T05:28:35.528Z,94.59
2019-01-24T05:29:06.720Z,94.63
2019-01-24T05:29:37.900Z,94.74
2019-01-24T05:30:09.062Z,94.87
2019-01-24T05:30:40.233Z,95.02
2019-01-24T05:31:11.461Z,95.24
2019-01-24T05:31:42.973Z,95.32
2019-01-24T05:32:14.176Z,95.40
2019-01-24T05:32:45.430Z,95.41
2019-01-24T05:33:16.611Z,95.37
2019-01-24T05:33:47.794Z,95.31
2019-01-24T05:34:18.974Z,95.18
2019-01-24T05:34:50.132Z,95.09
2019-01-24T05:35:21.330Z,95.05
2019-01-24T05:35:52.572Z,95.00
2019-01-24T05:36:23.752Z,94.89
2019-01-24T05:36:54.936Z,94.80
2019-01-24T05:37:26.149Z,94.80
2019-01-24T05:37:57.313Z,94.79
2019-01-24T05:38:28.495Z,94.79
2019-01-24T05:38:59.659Z,94.81
2019-01-24T05:39:30.831Z,94.82
2019-01-24T05:40:02.005Z,94.74
2019-01-24T05:40:33.202Z,94.74
2019-01-24T05:41:04.370Z,94.73
2019-01-24T05:41:35.555Z,94.74
2019-01-24T05:42:06.732Z,94.80
2019-01-24T05:42:37.957Z,94.86
2019-01-24T05:43:09.123Z,94.92
2019-01-24T05:43:40.302Z,94.91
2019-01-24T05:44:11.507Z,94.90
2019-01-24T05:44:42.705Z,94.94
2019-01-24T05:45:13.878Z,94.96
2019-01-24T05:45:45.456Z,94.99
2019-01-24T05:46:16.620Z,95.11
2019-01-24T05:46:47.812Z,95.20
2019-01-24T05:47:19.042Z,95.30
2019-01-24T05:47:50.209Z,95.42
2019-01-24T05:48:21.395Z,95.54
2019-01-24T05:48:52.602Z,95.57
2019-01-24T05:49:23.756Z,95.69
2019-01-24T05:49:54.909Z,95.74
2019-01-24T05:50:26.129Z,95.82
2019-01-24T05:50:57.308Z,95.88
2019-01-24T05:51:28.477Z,95.82
2019-01-24T05:51:59.672Z,95.75
2019-01-24T05:52:30.841Z,95.71
2019-01-24T05:53:02.015Z,95.67
2019-01-24T05:53:33.178Z,95.63
2019-01-24T05:54:04.347Z,95.58
2019-01-24T05:54:35.526Z,95.52
2019-01-24T05:55:06.710Z,95.47
2019-01-24T05:55:37.925Z,95.52
2019-01-24T05:56:09.101Z,95.61
2019-01-24T05:56:40.292Z,95.66
2019-01-24T05:57:11.466Z,95.61
2019-01-24T05:57:42.636Z,95.57
2019-01-24T05:58:13.848Z,95.65
2019-01-24T05:58:45.072Z,95.60
2019-01-24T05:59:16.270Z,95.56
2019-01-24T05:59:47.438Z,95.46
2019-01-24T06:00:18.648Z,95.38
2019-01-24T06:00:49.838Z,95.32
2019-01-24T06:01:21.024Z,95.12
2019-01-24T06:01:52.233Z,94.93
2019-01-24T06:02:23.415Z,94.77
2019-01-24T06:02:54.633Z,94.58
2019-01-24T06:03:25.797Z,94.41
2019-01-24T06:03:56.978Z,94.24
2019-01-24T06:04:28.158Z,94.19
2019-01-24T06:04:59.331Z,94.19
2019-01-24T06:05:30.510Z,94.13
2019-01-24T06:06:01.696Z,94.03
2019-01-24T06:06:32.862Z,93.90
2019-01-24T06:07:04.041Z,93.95
2019-01-24T06:07:35.207Z,93.92
2019-01-24T06:08:06.441Z,93.86
2019-01-24T06:08:37.625Z,93.84
2019-01-24T06:09:08.794Z,93.85
2019-01-24T06:09:40.014Z,93.85
2019-01-24T06:10:11.165Z,93.80
2019-01-24T06:10:42.325Z,93.80
2019-01-24T06:11:13.508Z,93.81
2019-01-24T06:11:44.693Z,93.78
2019-01-24T06:12:15.872Z,93.73
2019-01-24T06:12:47.080Z,93.74
2019-01-24T06:13:18.297Z,93.75
2019-01-24T06:13:49.487Z,93.77
2019-01-24T06:14:20.673Z,93.70
2019-01-24T06:14:51.842Z,93.73
2019-01-24T06:15:23.017Z,93.75
2019-01-24T06:15:54.195Z,93.75
2019-01-24T06:16:25.367Z,93.69
2019-01-24T06:16:56.557Z,93.60
2019-01-24T06:17:27.720Z,93.49
2019-01-24T06:17:58.886Z,93.42
2019-01-24T06:18:30.108Z,93.44
2019-01-24T06:19:01.272Z,93.36
2019-01-24T06:19:32.433Z,93.37
2019-01-24T06:20:03.617Z,93.39
2019-01-24T06:20:34.800Z,93.41
2019-01-24T06:21:05.966Z,93.38
2019-01-24T06:21:37.126Z,93.39
2019-01-24T06:22:08.303Z,93.41
2019-01-24T06:22:39.473Z,93.29
2019-01-24T06:23:11.234Z,93.37
2019-01-24T06:23:42.545Z,93.39
2019-01-24T06:24:14.767Z,93.30
2019-01-24T06:24:45.973Z,93.28
2019-01-24T06:25:17.141Z,93.31
2019-01-24T06:25:48.299Z,93.26
2019-01-24T06:26:19.517Z,93.25
2019-01-24T06:26:50.731Z,93.27
2019-01-24T06:27:21.892Z,93.30
2019-01-24T06:27:53.077Z,93.34
2019-01-24T06:28:24.258Z,93.38
2019-01-24T06:28:55.422Z,93.29
2019-01-24T06:29:26.655Z,93.10
2019-01-24T06:29:57.824Z,93.00
2019-01-24T06:30:29.019Z,92.88
2019-01-24T06:31:00.184Z,92.75
2019-01-24T06:31:31.352Z,92.66
2019-01-24T06:32:02.527Z,92.62
2019-01-24T06:32:33.711Z,92.68
2019-01-24T06:33:04.878Z,92.70
2019-01-24T06:33:36.038Z,92.77
2019-01-24T06:34:07.205Z,92.76
2019-01-24T06:34:38.434Z,92.55
2019-01-24T06:35:09.619Z,92.34
2019-01-24T06:35:40.785Z,92.32
2019-01-24T06:36:11.955Z,92.33
2019-01-24T06:36:43.115Z,92.40
2019-01-24T06:37:14.286Z,92.37
2019-01-24T06:37:45.448Z,92.46
2019-01-24T06:38:16.622Z,92.39
2019-01-24T06:38:47.793Z,92.39
2019-01-24T06:39:18.958Z,92.17
2019-01-24T06:39:50.170Z,92.00
2019-01-24T06:40:21.340Z,91.67
2019-01-24T06:40:52.524Z,91.61
2019-01-24T06:41:23.696Z,91.52
2019-01-24T06:41:54.877Z,91.36